sensor_id;sensor_type;location;lat;lon;timestamp;P1;durP1;ratioP1;P2;durP2;ratioP2
22603;SDS011;11469;49.024;8.246;2022-10-31T00:02:26;12.70;;;4.85;;
22603;SDS011;11469;49.024;8.246;2022-10-31T00:04:51;13.73;;;3.88;;
22603;SDS011;11469;49.024;8.246;2022-10-31T00:07:16;16.55;;;4.97;;
22603;SDS011;11469;49.024;8.246;2022-10-31T00:09:42;11.50;;;3.80;;
22603;SDS011;11469;49.024;8.246;2022-10-31T00:12:07;15.38;;;4.38;;
22603;SDS011;11469;49.024;8.246;2022-10-31T00:14:33;15.25;;;6.13;;
22603;SDS011;11469;49.024;8.246;2022-10-31T00:16:58;15.90;;;5.07;;
22603;SDS011;11469;49.024;8.246;2022-10-31T00:19:23;16.30;;;4.53;;
22603;SDS011;11469;49.024;8.246;2022-10-31T00:21:51;14.50;;;4.38;;
22603;SDS011;11469;49.024;8.246;2022-10-31T00:24:17;12.15;;;4.00;;
22603;SDS011;11469;49.024;8.246;2022-10-31T00:26:42;18.50;;;4.75;;
22603;SDS011;11469;49.024;8.246;2022-10-31T00:29:07;9.98;;;4.15;;
22603;SDS011;11469;49.024;8.246;2022-10-31T00:31:33;15.65;;;4.40;;
22603;SDS011;11469;49.024;8.246;2022-10-31T00:33:58;9.13;;;4.43;;
22603;SDS011;11469;49.024;8.246;2022-10-31T00:36:24;12.20;;;4.45;;
22603;SDS011;11469;49.024;8.246;2022-10-31T00:38:49;9.63;;;4.07;;
22603;SDS011;11469;49.024;8.246;2022-10-31T00:41:15;11.65;;;4.15;;
22603;SDS011;11469;49.024;8.246;2022-10-31T00:43:42;8.75;;;4.63;;
22603;SDS011;11469;49.024;8.246;2022-10-31T00:46:08;8.52;;;4.38;;
22603;SDS011;11469;49.024;8.246;2022-10-31T00:48:33;14.75;;;5.32;;
22603;SDS011;11469;49.024;8.246;2022-10-31T00:50:59;15.38;;;4.93;;
22603;SDS011;11469;49.024;8.246;2022-10-31T00:53:24;8.85;;;4.40;;
22603;SDS011;11469;49.024;8.246;2022-10-31T00:55:50;19.48;;;5.35;;
22603;SDS011;11469;49.024;8.246;2022-10-31T00:58:15;17.85;;;4.50;;
22603;SDS011;11469;49.024;8.246;2022-10-31T01:00:41;12.57;;;5.07;;
22603;SDS011;11469;49.024;8.246;2022-10-31T01:03:07;14.35;;;4.68;;
22603;SDS011;11469;49.024;8.246;2022-10-31T01:05:32;18.50;;;5.43;;
22603;SDS011;11469;49.024;8.246;2022-10-31T01:07:58;21.52;;;5.18;;
22603;SDS011;11469;49.024;8.246;2022-10-31T01:10:23;19.25;;;4.80;;
22603;SDS011;11469;49.024;8.246;2022-10-31T01:12:49;19.77;;;5.18;;
22603;SDS011;11469;49.024;8.246;2022-10-31T01:15:23;10.90;;;4.75;;
22603;SDS011;11469;49.024;8.246;2022-10-31T01:17:49;16.73;;;5.15;;
22603;SDS011;11469;49.024;8.246;2022-10-31T01:20:15;14.02;;;5.50;;
22603;SDS011;11469;49.024;8.246;2022-10-31T01:22:41;12.75;;;4.35;;
22603;SDS011;11469;49.024;8.246;2022-10-31T01:25:07;14.70;;;5.68;;
22603;SDS011;11469;49.024;8.246;2022-10-31T01:27:34;11.52;;;4.88;;
22603;SDS011;11469;49.024;8.246;2022-10-31T01:29:59;17.60;;;4.13;;
22603;SDS011;11469;49.024;8.246;2022-10-31T01:32:25;10.25;;;4.65;;
22603;SDS011;11469;49.024;8.246;2022-10-31T01:34:53;16.45;;;5.13;;
22603;SDS011;11469;49.024;8.246;2022-10-31T01:37:19;13.13;;;4.65;;
22603;SDS011;11469;49.024;8.246;2022-10-31T01:39:44;13.35;;;4.40;;
22603;SDS011;11469;49.024;8.246;2022-10-31T01:42:13;10.45;;;4.03;;
22603;SDS011;11469;49.024;8.246;2022-10-31T01:47:11;9.98;;;5.07;;
22603;SDS011;11469;49.024;8.246;2022-10-31T01:57:44;11.95;;;5.47;;
22603;SDS011;11469;49.024;8.246;2022-10-31T02:00:13;9.95;;;4.82;;
22603;SDS011;11469;49.024;8.246;2022-10-31T02:02:39;21.45;;;6.03;;
22603;SDS011;11469;49.024;8.246;2022-10-31T02:05:06;12.98;;;5.50;;
22603;SDS011;11469;49.024;8.246;2022-10-31T02:10:22;16.35;;;5.10;;
22603;SDS011;11469;49.024;8.246;2022-10-31T02:12:50;16.40;;;5.75;;
22603;SDS011;11469;49.024;8.246;2022-10-31T02:15:18;13.98;;;4.90;;
22603;SDS011;11469;49.024;8.246;2022-10-31T02:17:43;18.23;;;4.60;;
22603;SDS011;11469;49.024;8.246;2022-10-31T02:20:15;9.38;;;4.45;;
22603;SDS011;11469;49.024;8.246;2022-10-31T02:39:21;7.20;;;3.50;;
22603;SDS011;11469;49.024;8.246;2022-10-31T02:41:55;12.75;;;4.45;;
22603;SDS011;11469;49.024;8.246;2022-10-31T02:52:24;10.93;;;4.33;;
22603;SDS011;11469;49.024;8.246;2022-10-31T02:54:50;16.88;;;4.50;;
22603;SDS011;11469;49.024;8.246;2022-10-31T02:57:18;13.77;;;4.80;;
22603;SDS011;11469;49.024;8.246;2022-10-31T02:59:57;16.67;;;5.93;;
22603;SDS011;11469;49.024;8.246;2022-10-31T03:02:33;20.58;;;6.80;;
22603;SDS011;11469;49.024;8.246;2022-10-31T03:05:06;11.35;;;5.00;;
22603;SDS011;11469;49.024;8.246;2022-10-31T03:11:09;13.20;;;5.00;;
22603;SDS011;11469;49.024;8.246;2022-10-31T03:13:44;18.08;;;4.85;;
22603;SDS011;11469;49.024;8.246;2022-10-31T03:21:35;20.83;;;4.88;;
22603;SDS011;11469;49.024;8.246;2022-10-31T03:24:07;13.85;;;5.20;;
22603;SDS011;11469;49.024;8.246;2022-10-31T03:26:35;11.27;;;4.25;;
22603;SDS011;11469;49.024;8.246;2022-10-31T03:29:07;11.13;;;4.05;;
22603;SDS011;11469;49.024;8.246;2022-10-31T03:31:40;8.90;;;4.45;;
22603;SDS011;11469;49.024;8.246;2022-10-31T03:34:11;13.23;;;5.15;;
22603;SDS011;11469;49.024;8.246;2022-10-31T03:36:38;12.85;;;4.63;;
22603;SDS011;11469;49.024;8.246;2022-10-31T03:39:05;21.67;;;4.53;;
22603;SDS011;11469;49.024;8.246;2022-10-31T03:41:35;25.70;;;6.57;;
22603;SDS011;11469;49.024;8.246;2022-10-31T03:44:06;19.90;;;5.43;;
22603;SDS011;11469;49.024;8.246;2022-10-31T03:46:35;13.60;;;5.38;;
22603;SDS011;11469;49.024;8.246;2022-10-31T03:49:01;19.27;;;6.22;;
22603;SDS011;11469;49.024;8.246;2022-10-31T03:51:30;14.68;;;6.25;;
22603;SDS011;11469;49.024;8.246;2022-10-31T03:56:53;15.43;;;5.78;;
22603;SDS011;11469;49.024;8.246;2022-10-31T03:59:29;16.83;;;5.93;;
22603;SDS011;11469;49.024;8.246;2022-10-31T04:02:02;12.35;;;5.68;;
22603;SDS011;11469;49.024;8.246;2022-10-31T04:04:32;16.30;;;6.25;;
22603;SDS011;11469;49.024;8.246;2022-10-31T04:06:58;17.77;;;5.60;;
22603;SDS011;11469;49.024;8.246;2022-10-31T04:09:26;13.50;;;6.00;;
22603;SDS011;11469;49.024;8.246;2022-10-31T04:11:55;12.63;;;4.80;;
22603;SDS011;11469;49.024;8.246;2022-10-31T04:14:24;10.85;;;4.80;;
22603;SDS011;11469;49.024;8.246;2022-10-31T04:16:52;22.38;;;5.82;;
22603;SDS011;11469;49.024;8.246;2022-10-31T04:19:19;12.65;;;4.93;;
22603;SDS011;11469;49.024;8.246;2022-10-31T04:21:44;14.52;;;4.90;;
22603;SDS011;11469;49.024;8.246;2022-10-31T04:24:10;12.15;;;5.78;;
22603;SDS011;11469;49.024;8.246;2022-10-31T04:26:36;10.93;;;5.22;;
22603;SDS011;11469;49.024;8.246;2022-10-31T04:29:01;9.77;;;4.85;;
22603;SDS011;11469;49.024;8.246;2022-10-31T04:31:27;11.20;;;5.05;;
22603;SDS011;11469;49.024;8.246;2022-10-31T04:33:52;18.65;;;5.50;;
22603;SDS011;11469;49.024;8.246;2022-10-31T04:36:18;12.82;;;5.55;;
22603;SDS011;11469;49.024;8.246;2022-10-31T04:38:43;25.58;;;6.57;;
22603;SDS011;11469;49.024;8.246;2022-10-31T04:41:08;16.48;;;6.55;;
22603;SDS011;11469;49.024;8.246;2022-10-31T04:43:34;19.42;;;5.45;;
22603;SDS011;11469;49.024;8.246;2022-10-31T04:45:59;12.38;;;4.65;;
22603;SDS011;11469;49.024;8.246;2022-10-31T04:48:25;22.10;;;5.35;;
22603;SDS011;11469;49.024;8.246;2022-10-31T04:50:50;15.10;;;4.90;;
22603;SDS011;11469;49.024;8.246;2022-10-31T04:53:16;9.70;;;4.30;;
22603;SDS011;11469;49.024;8.246;2022-10-31T04:55:41;18.23;;;5.32;;
22603;SDS011;11469;49.024;8.246;2022-10-31T04:58:07;24.90;;;5.72;;
22603;SDS011;11469;49.024;8.246;2022-10-31T05:00:32;13.40;;;5.20;;
22603;SDS011;11469;49.024;8.246;2022-10-31T05:02:57;24.40;;;5.85;;
22603;SDS011;11469;49.024;8.246;2022-10-31T05:05:24;11.15;;;5.38;;
22603;SDS011;11469;49.024;8.246;2022-10-31T05:07:54;15.88;;;5.68;;
22603;SDS011;11469;49.024;8.246;2022-10-31T05:10:21;21.80;;;6.25;;
22603;SDS011;11469;49.024;8.246;2022-10-31T05:12:48;15.32;;;6.35;;
22603;SDS011;11469;49.024;8.246;2022-10-31T05:15:20;15.90;;;5.80;;
22603;SDS011;11469;49.024;8.246;2022-10-31T05:17:46;13.20;;;5.28;;
22603;SDS011;11469;49.024;8.246;2022-10-31T05:20:13;10.95;;;4.78;;
22603;SDS011;11469;49.024;8.246;2022-10-31T05:22:43;10.95;;;5.30;;
22603;SDS011;11469;49.024;8.246;2022-10-31T05:25:09;11.32;;;5.38;;
22603;SDS011;11469;49.024;8.246;2022-10-31T05:27:38;12.13;;;5.38;;
22603;SDS011;11469;49.024;8.246;2022-10-31T05:30:07;15.50;;;5.15;;
22603;SDS011;11469;49.024;8.246;2022-10-31T05:32:40;10.40;;;4.85;;
22603;SDS011;11469;49.024;8.246;2022-10-31T05:35:08;18.17;;;6.20;;
22603;SDS011;11469;49.024;8.246;2022-10-31T05:37:37;13.98;;;5.95;;
22603;SDS011;11469;49.024;8.246;2022-10-31T05:40:03;13.70;;;5.25;;
22603;SDS011;11469;49.024;8.246;2022-10-31T05:42:30;19.30;;;6.72;;
22603;SDS011;11469;49.024;8.246;2022-10-31T05:44:55;14.00;;;5.13;;
22603;SDS011;11469;49.024;8.246;2022-10-31T05:47:20;13.45;;;5.65;;
22603;SDS011;11469;49.024;8.246;2022-10-31T05:49:46;9.00;;;4.45;;
22603;SDS011;11469;49.024;8.246;2022-10-31T05:52:11;12.30;;;4.55;;
22603;SDS011;11469;49.024;8.246;2022-10-31T05:54:36;14.40;;;4.85;;
22603;SDS011;11469;49.024;8.246;2022-10-31T05:57:02;16.98;;;5.72;;
22603;SDS011;11469;49.024;8.246;2022-10-31T05:59:27;13.65;;;6.13;;
22603;SDS011;11469;49.024;8.246;2022-10-31T06:01:53;18.25;;;6.82;;
22603;SDS011;11469;49.024;8.246;2022-10-31T06:04:18;11.75;;;5.05;;
22603;SDS011;11469;49.024;8.246;2022-10-31T06:06:43;14.18;;;5.55;;
22603;SDS011;11469;49.024;8.246;2022-10-31T06:09:09;18.58;;;5.28;;
22603;SDS011;11469;49.024;8.246;2022-10-31T06:11:34;14.88;;;5.32;;
22603;SDS011;11469;49.024;8.246;2022-10-31T06:13:59;17.85;;;6.18;;
22603;SDS011;11469;49.024;8.246;2022-10-31T06:16:25;11.70;;;4.90;;
22603;SDS011;11469;49.024;8.246;2022-10-31T06:18:50;9.18;;;4.80;;
22603;SDS011;11469;49.024;8.246;2022-10-31T06:21:16;10.68;;;4.30;;
22603;SDS011;11469;49.024;8.246;2022-10-31T06:23:41;12.02;;;4.88;;
22603;SDS011;11469;49.024;8.246;2022-10-31T06:26:06;14.65;;;5.43;;
22603;SDS011;11469;49.024;8.246;2022-10-31T06:28:32;14.98;;;5.47;;
22603;SDS011;11469;49.024;8.246;2022-10-31T06:30:57;16.20;;;6.18;;
22603;SDS011;11469;49.024;8.246;2022-10-31T06:33:23;11.63;;;4.90;;
22603;SDS011;11469;49.024;8.246;2022-10-31T06:35:48;19.80;;;5.55;;
22603;SDS011;11469;49.024;8.246;2022-10-31T06:38:14;17.58;;;5.57;;
22603;SDS011;11469;49.024;8.246;2022-10-31T06:40:39;11.95;;;5.72;;
22603;SDS011;11469;49.024;8.246;2022-10-31T06:43:04;12.32;;;6.05;;
22603;SDS011;11469;49.024;8.246;2022-10-31T06:45:30;12.20;;;5.85;;
22603;SDS011;11469;49.024;8.246;2022-10-31T06:47:55;21.02;;;7.20;;
22603;SDS011;11469;49.024;8.246;2022-10-31T06:50:22;15.82;;;6.32;;
22603;SDS011;11469;49.024;8.246;2022-10-31T06:52:51;21.75;;;6.40;;
22603;SDS011;11469;49.024;8.246;2022-10-31T06:55:21;20.00;;;7.18;;
22603;SDS011;11469;49.024;8.246;2022-10-31T06:57:58;18.35;;;6.72;;
22603;SDS011;11469;49.024;8.246;2022-10-31T07:00:25;13.35;;;6.30;;
22603;SDS011;11469;49.024;8.246;2022-10-31T07:03:05;15.05;;;6.32;;
22603;SDS011;11469;49.024;8.246;2022-10-31T07:05:32;29.10;;;7.78;;
22603;SDS011;11469;49.024;8.246;2022-10-31T07:08:01;28.05;;;7.05;;
22603;SDS011;11469;49.024;8.246;2022-10-31T07:10:29;22.75;;;7.22;;
22603;SDS011;11469;49.024;8.246;2022-10-31T07:12:57;35.30;;;7.75;;
22603;SDS011;11469;49.024;8.246;2022-10-31T07:15:24;16.63;;;6.90;;
22603;SDS011;11469;49.024;8.246;2022-10-31T07:17:50;14.05;;;6.68;;
22603;SDS011;11469;49.024;8.246;2022-10-31T07:20:16;18.65;;;6.85;;
22603;SDS011;11469;49.024;8.246;2022-10-31T07:22:42;12.38;;;6.63;;
22603;SDS011;11469;49.024;8.246;2022-10-31T07:25:07;16.40;;;7.05;;
22603;SDS011;11469;49.024;8.246;2022-10-31T07:27:40;15.80;;;8.27;;
22603;SDS011;11469;49.024;8.246;2022-10-31T07:30:07;12.50;;;7.28;;
22603;SDS011;11469;49.024;8.246;2022-10-31T07:32:43;14.27;;;7.38;;
22603;SDS011;11469;49.024;8.246;2022-10-31T07:35:11;14.90;;;7.15;;
22603;SDS011;11469;49.024;8.246;2022-10-31T07:37:39;15.68;;;7.50;;
22603;SDS011;11469;49.024;8.246;2022-10-31T07:40:05;11.10;;;5.90;;
22603;SDS011;11469;49.024;8.246;2022-10-31T07:42:36;18.88;;;6.38;;
22603;SDS011;11469;49.024;8.246;2022-10-31T07:45:03;12.10;;;6.07;;
22603;SDS011;11469;49.024;8.246;2022-10-31T07:47:29;10.90;;;6.72;;
22603;SDS011;11469;49.024;8.246;2022-10-31T07:50:02;13.15;;;6.75;;
22603;SDS011;11469;49.024;8.246;2022-10-31T07:52:27;12.60;;;6.22;;
22603;SDS011;11469;49.024;8.246;2022-10-31T07:54:53;15.23;;;6.25;;
22603;SDS011;11469;49.024;8.246;2022-10-31T07:57:18;9.70;;;6.22;;
22603;SDS011;11469;49.024;8.246;2022-10-31T07:59:44;10.52;;;6.82;;
22603;SDS011;11469;49.024;8.246;2022-10-31T08:02:09;11.85;;;6.60;;
22603;SDS011;11469;49.024;8.246;2022-10-31T08:04:34;12.48;;;6.32;;
22603;SDS011;11469;49.024;8.246;2022-10-31T08:07:00;14.15;;;6.07;;
22603;SDS011;11469;49.024;8.246;2022-10-31T08:09:25;15.68;;;6.15;;
22603;SDS011;11469;49.024;8.246;2022-10-31T08:11:50;8.10;;;5.57;;
22603;SDS011;11469;49.024;8.246;2022-10-31T08:14:17;16.05;;;6.45;;
22603;SDS011;11469;49.024;8.246;2022-10-31T08:16:42;14.48;;;6.50;;
22603;SDS011;11469;49.024;8.246;2022-10-31T08:19:08;16.42;;;6.18;;
22603;SDS011;11469;49.024;8.246;2022-10-31T08:21:33;16.02;;;6.72;;
22603;SDS011;11469;49.024;8.246;2022-10-31T08:23:58;10.18;;;6.05;;
22603;SDS011;11469;49.024;8.246;2022-10-31T08:26:24;17.20;;;6.80;;
22603;SDS011;11469;49.024;8.246;2022-10-31T08:28:49;11.73;;;5.30;;
22603;SDS011;11469;49.024;8.246;2022-10-31T08:31:15;9.02;;;6.45;;
22603;SDS011;11469;49.024;8.246;2022-10-31T08:33:40;12.98;;;5.78;;
22603;SDS011;11469;49.024;8.246;2022-10-31T08:36:06;12.13;;;7.10;;
22603;SDS011;11469;49.024;8.246;2022-10-31T08:38:31;12.18;;;7.05;;
22603;SDS011;11469;49.024;8.246;2022-10-31T08:40:57;11.40;;;6.38;;
22603;SDS011;11469;49.024;8.246;2022-10-31T08:43:22;12.73;;;7.18;;
22603;SDS011;11469;49.024;8.246;2022-10-31T08:45:48;12.07;;;6.85;;
22603;SDS011;11469;49.024;8.246;2022-10-31T08:48:14;13.10;;;6.95;;
22603;SDS011;11469;49.024;8.246;2022-10-31T08:50:42;19.48;;;6.30;;
22603;SDS011;11469;49.024;8.246;2022-10-31T08:53:12;19.00;;;6.57;;
22603;SDS011;11469;49.024;8.246;2022-10-31T08:55:40;16.02;;;6.20;;
22603;SDS011;11469;49.024;8.246;2022-10-31T08:58:09;9.80;;;6.40;;
22603;SDS011;11469;49.024;8.246;2022-10-31T09:00:36;16.02;;;5.68;;
22603;SDS011;11469;49.024;8.246;2022-10-31T09:03:03;12.82;;;6.22;;
22603;SDS011;11469;49.024;8.246;2022-10-31T09:05:30;13.50;;;5.95;;
22603;SDS011;11469;49.024;8.246;2022-10-31T09:07:57;17.67;;;5.95;;
22603;SDS011;11469;49.024;8.246;2022-10-31T09:10:23;9.38;;;5.80;;
22603;SDS011;11469;49.024;8.246;2022-10-31T09:12:59;14.68;;;5.28;;
22603;SDS011;11469;49.024;8.246;2022-10-31T09:15:33;13.90;;;5.53;;
22603;SDS011;11469;49.024;8.246;2022-10-31T09:18:00;19.10;;;5.50;;
22603;SDS011;11469;49.024;8.246;2022-10-31T09:20:26;19.20;;;5.95;;
22603;SDS011;11469;49.024;8.246;2022-10-31T09:22:59;12.98;;;5.28;;
22603;SDS011;11469;49.024;8.246;2022-10-31T09:25:26;10.23;;;5.25;;
22603;SDS011;11469;49.024;8.246;2022-10-31T09:27:59;11.93;;;5.30;;
22603;SDS011;11469;49.024;8.246;2022-10-31T09:30:29;10.38;;;4.80;;
22603;SDS011;11469;49.024;8.246;2022-10-31T09:33:00;15.80;;;5.88;;
22603;SDS011;11469;49.024;8.246;2022-10-31T09:35:27;17.45;;;5.10;;
22603;SDS011;11469;49.024;8.246;2022-10-31T09:37:56;13.48;;;5.47;;
22603;SDS011;11469;49.024;8.246;2022-10-31T09:40:24;17.80;;;6.57;;
22603;SDS011;11469;49.024;8.246;2022-10-31T09:43:31;15.70;;;6.63;;
22603;SDS011;11469;49.024;8.246;2022-10-31T09:45:50;13.93;;;6.13;;
22603;SDS011;11469;49.024;8.246;2022-10-31T09:53:37;14.40;;;6.65;;
22603;SDS011;11469;49.024;8.246;2022-10-31T09:58:53;11.25;;;5.95;;
22603;SDS011;11469;49.024;8.246;2022-10-31T10:01:26;14.73;;;5.70;;
22603;SDS011;11469;49.024;8.246;2022-10-31T10:03:54;13.27;;;6.00;;
22603;SDS011;11469;49.024;8.246;2022-10-31T10:06:27;11.77;;;5.13;;
22603;SDS011;11469;49.024;8.246;2022-10-31T10:08:55;15.13;;;5.55;;
22603;SDS011;11469;49.024;8.246;2022-10-31T10:14:04;20.42;;;6.13;;
22603;SDS011;11469;49.024;8.246;2022-10-31T10:27:41;12.80;;;6.45;;
22603;SDS011;11469;49.024;8.246;2022-10-31T10:30:18;16.83;;;7.65;;
22603;SDS011;11469;49.024;8.246;2022-10-31T10:37:56;14.82;;;7.45;;
22603;SDS011;11469;49.024;8.246;2022-10-31T10:40:26;20.25;;;6.90;;
22603;SDS011;11469;49.024;8.246;2022-10-31T10:42:59;26.48;;;13.50;;
22603;SDS011;11469;49.024;8.246;2022-10-31T10:45:52;11.93;;;6.03;;
22603;SDS011;11469;49.024;8.246;2022-10-31T10:48:43;13.55;;;5.90;;
22603;SDS011;11469;49.024;8.246;2022-10-31T10:59:39;19.50;;;5.90;;
22603;SDS011;11469;49.024;8.246;2022-10-31T11:02:15;16.90;;;5.50;;
22603;SDS011;11469;49.024;8.246;2022-10-31T11:04:47;20.05;;;5.85;;
22603;SDS011;11469;49.024;8.246;2022-10-31T11:07:16;15.80;;;5.10;;
22603;SDS011;11469;49.024;8.246;2022-10-31T11:09:42;13.40;;;5.60;;
22603;SDS011;11469;49.024;8.246;2022-10-31T11:12:09;9.07;;;5.30;;
22603;SDS011;11469;49.024;8.246;2022-10-31T11:17:33;14.60;;;5.45;;
22603;SDS011;11469;49.024;8.246;2022-10-31T11:22:43;11.90;;;4.65;;
22603;SDS011;11469;49.024;8.246;2022-10-31T11:27:44;14.35;;;5.43;;
22603;SDS011;11469;49.024;8.246;2022-10-31T11:30:11;13.93;;;5.60;;
22603;SDS011;11469;49.024;8.246;2022-10-31T11:32:37;15.27;;;5.95;;
22603;SDS011;11469;49.024;8.246;2022-10-31T11:35:12;11.23;;;5.30;;
22603;SDS011;11469;49.024;8.246;2022-10-31T11:37:43;18.08;;;5.97;;
22603;SDS011;11469;49.024;8.246;2022-10-31T11:40:18;16.65;;;6.13;;
22603;SDS011;11469;49.024;8.246;2022-10-31T11:42:48;17.38;;;5.63;;
22603;SDS011;11469;49.024;8.246;2022-10-31T11:45:26;11.63;;;5.22;;
22603;SDS011;11469;49.024;8.246;2022-10-31T11:47:55;15.55;;;5.57;;
22603;SDS011;11469;49.024;8.246;2022-10-31T11:50:22;10.65;;;4.97;;
22603;SDS011;11469;49.024;8.246;2022-10-31T11:52:51;16.42;;;5.22;;
22603;SDS011;11469;49.024;8.246;2022-10-31T11:57:53;12.77;;;5.15;;
22603;SDS011;11469;49.024;8.246;2022-10-31T12:00:21;11.40;;;5.25;;
22603;SDS011;11469;49.024;8.246;2022-10-31T12:02:48;12.93;;;5.40;;
22603;SDS011;11469;49.024;8.246;2022-10-31T12:05:25;12.05;;;5.78;;
22603;SDS011;11469;49.024;8.246;2022-10-31T12:07:57;17.77;;;5.57;;
22603;SDS011;11469;49.024;8.246;2022-10-31T12:10:24;11.52;;;5.00;;
22603;SDS011;11469;49.024;8.246;2022-10-31T12:15:47;19.40;;;5.82;;
22603;SDS011;11469;49.024;8.246;2022-10-31T12:18:42;13.00;;;5.75;;
22603;SDS011;11469;49.024;8.246;2022-10-31T12:24:09;17.23;;;6.55;;
22603;SDS011;11469;49.024;8.246;2022-10-31T12:45:34;17.48;;;5.15;;
22603;SDS011;11469;49.024;8.246;2022-10-31T12:51:15;10.13;;;4.40;;
22603;SDS011;11469;49.024;8.246;2022-10-31T12:59:42;15.68;;;5.10;;
22603;SDS011;11469;49.024;8.246;2022-10-31T13:02:23;9.95;;;4.60;;
22603;SDS011;11469;49.024;8.246;2022-10-31T13:08:01;9.07;;;5.22;;
22603;SDS011;11469;49.024;8.246;2022-10-31T13:13:30;12.55;;;6.30;;
22603;SDS011;11469;49.024;8.246;2022-10-31T13:16:21;13.20;;;5.57;;
22603;SDS011;11469;49.024;8.246;2022-10-31T13:18:53;12.07;;;5.15;;
22603;SDS011;11469;49.024;8.246;2022-10-31T13:21:26;20.52;;;6.07;;
22603;SDS011;11469;49.024;8.246;2022-10-31T13:23:56;18.55;;;5.28;;
22603;SDS011;11469;49.024;8.246;2022-10-31T13:26:37;17.27;;;5.63;;
22603;SDS011;11469;49.024;8.246;2022-10-31T13:29:33;10.02;;;4.25;;
22603;SDS011;11469;49.024;8.246;2022-10-31T13:32:05;12.68;;;6.03;;
22603;SDS011;11469;49.024;8.246;2022-10-31T13:34:33;15.32;;;4.70;;
22603;SDS011;11469;49.024;8.246;2022-10-31T13:45:19;11.93;;;5.28;;
22603;SDS011;11469;49.024;8.246;2022-10-31T13:47:56;14.65;;;5.05;;
22603;SDS011;11469;49.024;8.246;2022-10-31T13:50:31;9.73;;;4.25;;
22603;SDS011;11469;49.024;8.246;2022-10-31T13:53:18;12.38;;;5.10;;
22603;SDS011;11469;49.024;8.246;2022-10-31T13:55:47;16.80;;;4.57;;
22603;SDS011;11469;49.024;8.246;2022-10-31T13:58:20;10.70;;;4.10;;
22603;SDS011;11469;49.024;8.246;2022-10-31T14:01:10;8.73;;;4.38;;
22603;SDS011;11469;49.024;8.246;2022-10-31T14:03:40;10.57;;;3.97;;
22603;SDS011;11469;49.024;8.246;2022-10-31T14:06:08;11.05;;;3.95;;
22603;SDS011;11469;49.024;8.246;2022-10-31T14:08:36;13.70;;;5.57;;
22603;SDS011;11469;49.024;8.246;2022-10-31T14:11:06;10.35;;;4.68;;
22603;SDS011;11469;49.024;8.246;2022-10-31T14:13:38;19.52;;;5.47;;
22603;SDS011;11469;49.024;8.246;2022-10-31T14:16:20;20.58;;;6.13;;
22603;SDS011;11469;49.024;8.246;2022-10-31T14:18:59;13.80;;;5.15;;
22603;SDS011;11469;49.024;8.246;2022-10-31T14:21:36;27.08;;;5.88;;
22603;SDS011;11469;49.024;8.246;2022-10-31T14:24:13;14.13;;;6.18;;
22603;SDS011;11469;49.024;8.246;2022-10-31T14:26:55;15.77;;;5.97;;
22603;SDS011;11469;49.024;8.246;2022-10-31T14:29:28;17.60;;;6.22;;
22603;SDS011;11469;49.024;8.246;2022-10-31T14:45:24;13.55;;;6.63;;
22603;SDS011;11469;49.024;8.246;2022-10-31T14:51:01;18.15;;;8.02;;
22603;SDS011;11469;49.024;8.246;2022-10-31T14:53:35;16.27;;;6.45;;
22603;SDS011;11469;49.024;8.246;2022-10-31T14:56:11;13.40;;;5.90;;
22603;SDS011;11469;49.024;8.246;2022-10-31T14:58:44;13.77;;;5.63;;
22603;SDS011;11469;49.024;8.246;2022-10-31T15:01:33;15.98;;;6.43;;
22603;SDS011;11469;49.024;8.246;2022-10-31T15:06:40;19.67;;;7.63;;
22603;SDS011;11469;49.024;8.246;2022-10-31T15:11:52;21.88;;;7.25;;
22603;SDS011;11469;49.024;8.246;2022-10-31T15:14:36;17.63;;;6.78;;
22603;SDS011;11469;49.024;8.246;2022-10-31T15:17:01;21.17;;;6.32;;
22603;SDS011;11469;49.024;8.246;2022-10-31T15:19:29;13.77;;;5.70;;
22603;SDS011;11469;49.024;8.246;2022-10-31T15:21:56;16.08;;;6.00;;
22603;SDS011;11469;49.024;8.246;2022-10-31T15:24:23;16.83;;;5.32;;
22603;SDS011;11469;49.024;8.246;2022-10-31T15:26:53;17.58;;;6.47;;
22603;SDS011;11469;49.024;8.246;2022-10-31T15:29:21;12.75;;;6.50;;
22603;SDS011;11469;49.024;8.246;2022-10-31T15:34:25;17.50;;;6.93;;
22603;SDS011;11469;49.024;8.246;2022-10-31T15:36:51;16.42;;;6.38;;
22603;SDS011;11469;49.024;8.246;2022-10-31T15:39:17;16.33;;;6.93;;
22603;SDS011;11469;49.024;8.246;2022-10-31T15:41:53;20.58;;;6.95;;
22603;SDS011;11469;49.024;8.246;2022-10-31T15:55:03;13.25;;;6.85;;
22603;SDS011;11469;49.024;8.246;2022-10-31T16:00:59;21.88;;;7.57;;
22603;SDS011;11469;49.024;8.246;2022-10-31T16:03:27;22.95;;;6.68;;
22603;SDS011;11469;49.024;8.246;2022-10-31T16:05:56;13.55;;;5.90;;
22603;SDS011;11469;49.024;8.246;2022-10-31T16:13:33;14.57;;;5.78;;
22603;SDS011;11469;49.024;8.246;2022-10-31T16:16:04;16.38;;;5.47;;
22603;SDS011;11469;49.024;8.246;2022-10-31T16:18:37;17.33;;;6.03;;
22603;SDS011;11469;49.024;8.246;2022-10-31T16:21:05;21.42;;;9.57;;
22603;SDS011;11469;49.024;8.246;2022-10-31T16:23:31;27.17;;;8.00;;
22603;SDS011;11469;49.024;8.246;2022-10-31T16:25:57;18.63;;;6.97;;
22603;SDS011;11469;49.024;8.246;2022-10-31T16:28:23;18.55;;;7.47;;
22603;SDS011;11469;49.024;8.246;2022-10-31T16:30:51;24.00;;;7.88;;
22603;SDS011;11469;49.024;8.246;2022-10-31T16:35:46;15.40;;;7.40;;
22603;SDS011;11469;49.024;8.246;2022-10-31T16:38:13;11.20;;;5.93;;
22603;SDS011;11469;49.024;8.246;2022-10-31T16:40:38;16.70;;;6.22;;
22603;SDS011;11469;49.024;8.246;2022-10-31T16:43:04;15.50;;;6.78;;
22603;SDS011;11469;49.024;8.246;2022-10-31T16:45:30;17.98;;;6.82;;
22603;SDS011;11469;49.024;8.246;2022-10-31T16:48:02;13.45;;;6.32;;
22603;SDS011;11469;49.024;8.246;2022-10-31T16:50:29;17.17;;;6.35;;
22603;SDS011;11469;49.024;8.246;2022-10-31T16:52:54;17.30;;;6.43;;
22603;SDS011;11469;49.024;8.246;2022-10-31T16:55:20;16.90;;;8.40;;
22603;SDS011;11469;49.024;8.246;2022-10-31T16:57:47;23.00;;;7.32;;
22603;SDS011;11469;49.024;8.246;2022-10-31T17:00:19;17.42;;;6.95;;
22603;SDS011;11469;49.024;8.246;2022-10-31T17:02:46;15.43;;;7.30;;
22603;SDS011;11469;49.024;8.246;2022-10-31T17:05:14;16.05;;;6.65;;
22603;SDS011;11469;49.024;8.246;2022-10-31T17:07:41;21.73;;;5.95;;
22603;SDS011;11469;49.024;8.246;2022-10-31T17:10:07;10.25;;;6.05;;
22603;SDS011;11469;49.024;8.246;2022-10-31T17:12:33;11.85;;;5.50;;
22603;SDS011;11469;49.024;8.246;2022-10-31T17:14:59;15.40;;;6.63;;
22603;SDS011;11469;49.024;8.246;2022-10-31T17:17:25;22.80;;;7.53;;
22603;SDS011;11469;49.024;8.246;2022-10-31T17:19:52;18.75;;;8.60;;
22603;SDS011;11469;49.024;8.246;2022-10-31T17:22:17;21.60;;;7.63;;
22603;SDS011;11469;49.024;8.246;2022-10-31T17:24:43;17.25;;;7.03;;
22603;SDS011;11469;49.024;8.246;2022-10-31T17:27:08;12.93;;;6.85;;
22603;SDS011;11469;49.024;8.246;2022-10-31T17:29:34;14.88;;;6.85;;
22603;SDS011;11469;49.024;8.246;2022-10-31T17:32:00;17.95;;;6.03;;
22603;SDS011;11469;49.024;8.246;2022-10-31T17:34:27;22.23;;;6.78;;
22603;SDS011;11469;49.024;8.246;2022-10-31T17:36:52;13.30;;;6.93;;
22603;SDS011;11469;49.024;8.246;2022-10-31T17:39:18;12.13;;;5.93;;
22603;SDS011;11469;49.024;8.246;2022-10-31T17:41:44;18.05;;;5.85;;
22603;SDS011;11469;49.024;8.246;2022-10-31T17:44:10;14.20;;;4.88;;
22603;SDS011;11469;49.024;8.246;2022-10-31T17:46:36;18.05;;;6.10;;
22603;SDS011;11469;49.024;8.246;2022-10-31T17:49:02;17.45;;;7.00;;
22603;SDS011;11469;49.024;8.246;2022-10-31T17:51:29;19.73;;;7.60;;
22603;SDS011;11469;49.024;8.246;2022-10-31T17:53:56;22.35;;;8.95;;
22603;SDS011;11469;49.024;8.246;2022-10-31T17:56:22;16.42;;;8.88;;